Time;durP1;ratioP1;P1;durP2;ratioP2;P2;SDS_P1;SDS_P2;PMS_P1;PMS_P2;Temp;Humidity;BMP_temperature;BMP_pressure;BME280_temperature;BME280_humidity;BME280_pressure;Samples;Min_cycle;Max_cycle;Signal;HPM_P1;HPM_P2
2022/08/03 00:00:01;;;;;;;;;;;23.30;55.70;;;;;;5047233;28;83024;-43
2022/08/03 00:02:26;;;;;;;;;;;23.20;55.70;;;;;;5047710;27;84061;-42
2022/08/03 00:04:52;;;;;;;;;;;23.20;55.70;;;;;;5047790;28;83131;-43
2022/08/03 00:07:18;;;;;;;;;;;23.20;55.80;;;;;;5048046;28;82012;-43
2022/08/03 00:09:44;;;;;;;;;;;23.20;55.70;;;;;;5048077;28;82327;-43
2022/08/03 00:12:09;;;;;;;;;;;23.20;55.80;;;;;;5047769;28;82846;-43
2022/08/03 00:14:35;;;;;;;;;;;23.20;55.70;;;;;;5048043;28;81803;-43
2022/08/03 00:17:00;;;;;;;;;;;23.20;55.70;;;;;;5050808;28;82501;-42
2022/08/03 00:19:26;;;;;;;;;;;23.10;55.80;;;;;;5047765;28;82050;-43
2022/08/03 00:21:52;;;;;;;;;;;23.10;55.80;;;;;;5047431;28;82481;-43
2022/08/03 00:24:17;;;;;;;;;;;23.10;55.80;;;;;;5046996;28;83660;-43
2022/08/03 00:26:43;;;;;;;;;;;23.10;55.80;;;;;;5047630;28;82095;-42
2022/08/03 00:29:08;;;;;;;;;;;23.10;55.80;;;;;;5047834;28;82410;-43
2022/08/03 00:31:34;;;;;;;;;;;23.10;55.80;;;;;;5047303;28;82968;-42
2022/08/03 00:33:59;;;;;;;;;;;23.00;55.80;;;;;;5047631;28;81898;-42
2022/08/03 00:36:25;;;;;;;;;;;23.00;55.80;;;;;;5047790;28;82550;-43
2022/08/03 00:38:51;;;;;;;;;;;23.00;55.70;;;;;;5050282;28;83025;-42
2022/08/03 00:41:16;;;;;;;;;;;23.00;55.80;;;;;;5048024;28;82277;-43
2022/08/03 00:43:41;;;;;;;;;;;23.00;55.80;;;;;;5047212;28;83644;-42
2022/08/03 00:46:07;;;;;;;;;;;23.00;55.80;;;;;;5047365;28;82038;-43
2022/08/03 00:48:32;;;;;;;;;;;23.00;55.80;;;;;;5046770;28;82787;-42
2022/08/03 00:50:58;;;;;;;;;;;23.00;55.90;;;;;;5046958;28;81852;-43
2022/08/03 00:53:24;;;;;;;;;;;23.00;55.80;;;;;;5047285;28;81978;-43
2022/08/03 00:55:50;;;;;;;;;;;22.90;55.90;;;;;;5047301;27;82374;-42
2022/08/03 00:58:15;;;;;;;;;;;22.90;55.80;;;;;;5046847;28;82947;-42
2022/08/03 01:00:41;;;;;;;;;;;22.90;55.80;;;;;;5049829;27;81985;-43
2022/08/03 01:03:07;;;;;;;;;;;22.90;55.90;;;;;;5045835;28;82756;-43
2022/08/03 01:06:05;;;;;;;;;;;22.90;55.90;;;;;;5047294;28;81733;-42
2022/08/03 01:08:33;;;;;;;;;;;22.80;55.90;;;;;;5022768;27;82104;-42
2022/08/03 01:11:16;;;;;;;;;;;22.80;55.90;;;;;;5046707;28;83131;-43
2022/08/03 01:13:48;;;;;;;;;;;22.80;55.90;;;;;;5046399;28;83169;-42
2022/08/03 01:16:19;;;;;;;;;;;22.80;55.90;;;;;;5046784;28;84745;-43
2022/08/03 01:18:50;;;;;;;;;;;22.80;55.90;;;;;;5046653;28;82987;-42
2022/08/03 01:21:54;;;;;;;;;;;22.80;55.90;;;;;;5046847;28;82030;-42
2022/08/03 01:24:38;;;;;;;;;;;22.70;55.90;;;;;;5006303;28;82864;-42
2022/08/03 01:27:07;;;;;;;;;;;22.80;55.90;;;;;;5004385;28;82028;-42
2022/08/03 01:29:51;;;;;;;;;;;22.70;55.80;;;;;;5029613;27;82982;-42
2022/08/03 01:32:21;;;;;;;;;;;22.70;55.90;;;;;;5046809;27;82265;-42
2022/08/03 01:34:50;;;;;;;;;;;22.70;55.90;;;;;;5046338;28;82300;-42
2022/08/03 01:37:26;;;;;;;;;;;22.70;55.90;;;;;;5046542;28;81949;-42
2022/08/03 01:39:52;;;;;;;;;;;22.60;55.90;;;;;;5045517;28;85234;-43
2022/08/03 01:42:18;;;;;;;;;;;22.60;55.90;;;;;;5046538;28;82051;-44
2022/08/03 01:44:44;;;;;;;;;;;22.60;55.90;;;;;;5049142;28;82832;-42
2022/08/03 01:47:10;;;;;;;;;;;22.60;55.90;;;;;;5046600;28;81972;-43
2022/08/03 01:49:42;;;;;;;;;;;22.60;55.90;;;;;;5046257;28;82577;-43
2022/08/03 01:52:07;;;;;;;;;;;22.60;55.90;;;;;;5044610;28;85278;-43
2022/08/03 01:54:34;;;;;;;;;;;22.60;56.00;;;;;;5046231;28;82059;-42
2022/08/03 01:57:00;;;;;;;;;;;22.50;55.90;;;;;;5046997;27;82492;-43
2022/08/03 01:59:27;;;;;;;;;;;22.50;56.00;;;;;;5046046;28;82566;-43
2022/08/03 02:01:53;;;;;;;;;;;22.50;55.90;;;;;;5045751;28;82077;-42
2022/08/03 02:04:20;;;;;;;;;;;22.50;55.90;;;;;;5045592;27;82824;-43
2022/08/03 02:06:47;;;;;;;;;;;22.50;55.80;;;;;;5048659;28;83058;-42
2022/08/03 02:09:13;;;;;;;;;;;22.50;55.90;;;;;;5046012;27;82516;-43
2022/08/03 02:11:39;;;;;;;;;;;22.50;55.90;;;;;;5045803;28;82960;-42
2022/08/03 02:14:06;;;;;;;;;;;22.40;55.90;;;;;;5045490;28;81960;-43
2022/08/03 02:16:32;;;;;;;;;;;22.40;55.80;;;;;;5045809;27;84039;-42
2022/08/03 02:18:59;;;;;;;;;;;22.40;55.90;;;;;;5045463;28;84525;-43
2022/08/03 02:21:27;;;;;;;;;;;22.40;55.90;;;;;;5046364;28;81289;-43
2022/08/03 02:23:53;;;;;;;;;;;22.40;55.90;;;;;;5045845;28;81892;-42
2022/08/03 02:26:19;;;;;;;;;;;22.40;55.90;;;;;;5045985;28;83154;-42
2022/08/03 02:28:48;;;;;;;;;;;22.40;55.90;;;;;;5047909;28;83024;-43
2022/08/03 02:31:21;;;;;;;;;;;22.40;55.90;;;;;;5045619;28;84474;-43
2022/08/03 02:33:49;;;;;;;;;;;22.30;55.90;;;;;;5045784;28;82029;-43
2022/08/03 02:36:17;;;;;;;;;;;22.30;56.00;;;;;;5045850;28;82617;-42
2022/08/03 02:38:44;;;;;;;;;;;22.30;55.90;;;;;;5045465;28;83169;-43
2022/08/03 02:41:13;;;;;;;;;;;22.30;55.90;;;;;;5045793;28;82007;-43
2022/08/03 02:43:39;;;;;;;;;;;22.30;55.90;;;;;;5045472;27;82312;-42
2022/08/03 02:46:06;;;;;;;;;;;22.20;55.90;;;;;;5046263;28;82269;-42
2022/08/03 02:48:33;;;;;;;;;;;22.30;55.90;;;;;;5045623;28;82105;-42
2022/08/03 02:51:01;;;;;;;;;;;22.20;55.90;;;;;;5047806;28;82525;-43
2022/08/03 02:53:27;;;;;;;;;;;22.20;55.90;;;;;;5044882;28;83057;-43
2022/08/03 02:55:54;;;;;;;;;;;22.20;55.90;;;;;;5045521;28;83590;-43
2022/08/03 02:58:20;;;;;;;;;;;22.10;55.90;;;;;;5045229;28;82916;-42
2022/08/03 03:00:45;;;;;;;;;;;22.20;56.00;;;;;;5045475;28;82019;-42
2022/08/03 03:03:12;;;;;;;;;;;22.10;55.90;;;;;;5045153;27;83561;-42
2022/08/03 03:05:38;;;;;;;;;;;22.10;55.90;;;;;;5045320;28;83078;-43
2022/08/03 03:08:04;;;;;;;;;;;22.10;55.90;;;;;;5045346;28;81833;-42
2022/08/03 03:10:30;;;;;;;;;;;22.10;55.90;;;;;;5045644;27;82737;-43
2022/08/03 03:12:56;;;;;;;;;;;22.10;55.90;;;;;;5047914;28;83818;-43
2022/08/03 03:15:23;;;;;;;;;;;22.10;55.90;;;;;;5045349;27;82474;-43
2022/08/03 03:17:50;;;;;;;;;;;22.10;55.90;;;;;;5044617;27;83902;-43
2022/08/03 03:20:16;;;;;;;;;;;22.10;55.90;;;;;;5045193;28;82029;-43
2022/08/03 03:22:42;;;;;;;;;;;22.00;55.90;;;;;;5045017;27;83132;-42
2022/08/03 03:25:08;;;;;;;;;;;22.00;55.90;;;;;;5045475;28;83799;-43
2022/08/03 03:27:34;;;;;;;;;;;22.00;55.90;;;;;;5048521;28;82048;-42
2022/08/03 03:30:00;;;;;;;;;;;22.00;55.90;;;;;;5048667;27;82262;-43
2022/08/03 03:32:26;;;;;;;;;;;22.00;55.90;;;;;;5048262;28;83022;-42
2022/08/03 03:34:53;;;;;;;;;;;22.00;55.90;;;;;;5051601;28;81252;-43
2022/08/03 03:37:19;;;;;;;;;;;22.00;56.00;;;;;;5048214;28;84595;-43
2022/08/03 03:39:44;;;;;;;;;;;21.90;55.90;;;;;;5048347;28;82035;-42
2022/08/03 03:42:10;;;;;;;;;;;21.90;56.00;;;;;;5047734;28;82801;-43
2022/08/03 03:44:35;;;;;;;;;;;21.90;55.90;;;;;;5048217;28;83238;-43
2022/08/03 03:47:01;;;;;;;;;;;21.90;56.00;;;;;;5048239;28;82068;-43
2022/08/03 03:49:27;;;;;;;;;;;21.90;55.90;;;;;;5048447;28;82337;-43
2022/08/03 03:51:53;;;;;;;;;;;21.90;56.00;;;;;;5047621;28;84576;-43
2022/08/03 03:54:20;;;;;;;;;;;21.80;55.90;;;;;;5050459;28;82044;-42
2022/08/03 03:56:45;;;;;;;;;;;21.80;56.00;;;;;;5047827;28;83572;-43
2022/08/03 03:59:11;;;;;;;;;;;21.80;56.00;;;;;;5048669;28;81181;-43
2022/08/03 04:01:37;;;;;;;;;;;21.80;56.00;;;;;;5047851;28;82055;-42
2022/08/03 04:10:57;;;;;;;;;;;21.80;56.00;;;;;;5047927;28;83045;-44
2022/08/03 04:12:31;;;;;;;;;;;21.70;56.00;;;;;;5047975;28;82182;-42
2022/08/03 04:14:57;;;;;;;;;;;21.70;56.00;;;;;;5047954;28;82201;-42
2022/08/03 04:17:26;;;;;;;;;;;21.70;56.00;;;;;;5050142;28;83840;-43
2022/08/03 04:19:52;;;;;;;;;;;21.70;56.00;;;;;;5047840;28;81973;-42
2022/08/03 04:22:20;;;;;;;;;;;21.70;56.00;;;;;;5047799;27;82408;-42
2022/08/03 04:24:47;;;;;;;;;;;21.70;56.00;;;;;;5048003;28;81390;-42
2022/08/03 04:27:14;;;;;;;;;;;21.70;56.10;;;;;;5047715;28;82038;-42
2022/08/03 04:29:41;;;;;;;;;;;21.60;56.20;;;;;;5047482;28;82231;-42
2022/08/03 04:32:07;;;;;;;;;;;21.60;56.20;;;;;;5046525;28;83128;-42
2022/08/03 04:34:33;;;;;;;;;;;21.60;56.10;;;;;;5047502;28;82028;-43
2022/08/03 04:37:00;;;;;;;;;;;21.60;56.20;;;;;;5047545;27;82432;-42
2022/08/03 04:39:26;;;;;;;;;;;21.60;56.20;;;;;;5049695;28;84397;-42
2022/08/03 04:41:54;;;;;;;;;;;21.60;56.30;;;;;;5047582;27;82421;-42
2022/08/03 04:44:22;;;;;;;;;;;21.60;56.20;;;;;;5047077;28;82926;-43
2022/08/03 04:46:48;;;;;;;;;;;21.60;56.20;;;;;;5046961;28;82576;-43
2022/08/03 04:49:13;;;;;;;;;;;21.50;56.20;;;;;;5047953;27;82598;-42
2022/08/03 04:51:39;;;;;;;;;;;21.50;56.20;;;;;;5046857;28;83110;-42
2022/08/03 04:54:06;;;;;;;;;;;21.50;56.20;;;;;;5046956;28;82075;-42
2022/08/03 04:56:33;;;;;;;;;;;21.50;56.30;;;;;;5046548;27;83807;-42
2022/08/03 04:58:58;;;;;;;;;;;21.50;56.30;;;;;;5046644;28;84345;-42
2022/08/03 05:01:24;;;;;;;;;;;21.50;56.30;;;;;;5049501;28;82129;-42
2022/08/03 05:03:50;;;;;;;;;;;21.50;56.30;;;;;;5046765;28;83063;-43
2022/08/03 05:06:15;;;;;;;;;;;21.50;56.40;;;;;;5046866;28;82089;-42
2022/08/03 05:08:41;;;;;;;;;;;21.50;56.40;;;;;;5047040;28;81972;-43
2022/08/03 05:11:06;;;;;;;;;;;21.50;56.50;;;;;;5046873;28;83095;-42
2022/08/03 05:13:32;;;;;;;;;;;21.50;56.50;;;;;;5047711;28;82330;-42
2022/08/03 05:15:57;;;;;;;;;;;21.40;56.50;;;;;;5046928;28;82197;-42
2022/08/03 05:18:23;;;;;;;;;;;21.50;56.60;;;;;;5046662;28;84022;-42
2022/08/03 05:20:48;;;;;;;;;;;21.50;56.50;;;;;;5046183;28;83083;-42
2022/08/03 05:23:14;;;;;;;;;;;21.50;56.50;;;;;;5049142;27;84733;-42
2022/08/03 05:25:40;;;;;;;;;;;21.50;56.60;;;;;;5046905;28;82105;-42
2022/08/03 05:28:05;;;;;;;;;;;21.40;56.60;;;;;;5046854;28;82412;-42
2022/08/03 05:30:31;;;;;;;;;;;21.40;56.60;;;;;;5046066;28;83762;-43
2022/08/03 05:32:56;;;;;;;;;;;21.40;56.60;;;;;;5046744;28;82069;-42
2022/08/03 05:35:24;;;;;;;;;;;21.40;57.20;;;;;;5045184;28;85618;-43
2022/08/03 05:37:49;;;;;;;;;;;21.40;56.60;;;;;;5046870;28;83721;-42
2022/08/03 05:40:15;;;;;;;;;;;21.40;56.70;;;;;;5046403;28;81822;-42
2022/08/03 05:42:40;;;;;;;;;;;21.40;56.60;;;;;;5049192;28;82622;-42
2022/08/03 05:45:18;;;;;;;;;;;21.40;56.80;;;;;;5045970;28;83350;-43
2022/08/03 05:47:44;;;;;;;;;;;21.40;56.80;;;;;;5046086;27;82462;-42
2022/08/03 05:50:10;;;;;;;;;;;21.40;56.80;;;;;;5046327;28;83120;-43
2022/08/03 05:52:36;;;;;;;;;;;21.40;57.00;;;;;;5045829;28;81952;-42
2022/08/03 05:55:02;;;;;;;;;;;21.40;57.00;;;;;;5046234;28;82355;-43
2022/08/03 05:57:28;;;;;;;;;;;21.40;57.00;;;;;;5045809;28;84485;-43
2022/08/03 05:59:53;;;;;;;;;;;21.40;57.00;;;;;;5045488;28;82129;-43
2022/08/03 06:02:19;;;;;;;;;;;21.40;57.00;;;;;;5046664;28;82267;-42
2022/08/03 06:04:45;;;;;;;;;;;21.40;57.00;;;;;;5048680;28;82933;-42
2022/08/03 06:07:11;;;;;;;;;;;21.40;57.10;;;;;;5046211;27;82327;-43
2022/08/03 06:09:36;;;;;;;;;;;21.40;57.10;;;;;;5045453;28;84104;-43
2022/08/03 06:12:02;;;;;;;;;;;21.40;57.10;;;;;;5044724;28;82263;-43
2022/08/03 06:14:27;;;;;;;;;;;21.40;57.10;;;;;;5045934;27;82478;-43
2022/08/03 06:16:53;;;;;;;;;;;21.40;57.10;;;;;;5045952;28;82281;-42
2022/08/03 06:19:18;;;;;;;;;;;21.40;57.10;;;;;;5046214;28;82161;-43
2022/08/03 06:21:44;;;;;;;;;;;21.40;57.10;;;;;;5046050;28;82821;-42
2022/08/03 06:24:10;;;;;;;;;;;21.40;57.20;;;;;;5045411;28;83510;-43
2022/08/03 06:26:35;;;;;;;;;;;21.40;57.20;;;;;;5048895;28;81199;-43
2022/08/03 06:29:01;;;;;;;;;;;21.40;57.40;;;;;;5045453;28;84342;-42
2022/08/03 06:31:28;;;;;;;;;;;21.40;57.30;;;;;;5045736;28;81876;-43
2022/08/03 06:33:54;;;;;;;;;;;21.40;57.30;;;;;;5043808;28;83776;-42
2022/08/03 06:36:19;;;;;;;;;;;21.40;57.30;;;;;;5045636;28;82991;-42
2022/08/03 06:38:45;;;;;;;;;;;21.40;57.30;;;;;;5045801;28;82054;-42
2022/08/03 06:41:11;;;;;;;;;;;21.40;57.40;;;;;;5045568;27;83827;-42
2022/08/03 06:43:36;;;;;;;;;;;21.40;57.50;;;;;;5045197;28;83346;-43
2022/08/03 06:46:02;;;;;;;;;;;21.40;57.60;;;;;;5045568;28;81872;-42
2022/08/03 06:48:28;;;;;;;;;;;21.50;57.50;;;;;;5048205;28;82258;-43
2022/08/03 06:50:53;;;;;;;;;;;21.40;57.50;;;;;;5045827;28;81192;-42
2022/08/03 06:53:19;;;;;;;;;;;21.40;57.60;;;;;;5045323;28;82740;-43
2022/08/03 06:55:44;;;;;;;;;;;21.50;57.60;;;;;;5045306;28;83215;-42
2022/08/03 06:58:09;;;;;;;;;;;21.50;57.60;;;;;;5044976;28;82943;-43
2022/08/03 07:00:35;;;;;;;;;;;21.50;57.60;;;;;;5046347;27;82590;-43
2022/08/03 07:03:00;;;;;;;;;;;21.40;57.60;;;;;;5048876;28;83164;-43
2022/08/03 07:05:26;;;;;;;;;;;21.40;57.60;;;;;;5049016;28;81780;-42
2022/08/03 07:07:56;;;;;;;;;;;21.50;57.70;;;;;;5048989;28;82437;-43
2022/08/03 07:10:21;;;;;;;;;;;21.50;57.70;;;;;;5051105;28;84157;-43
2022/08/03 07:12:47;;;;;;;;;;;21.50;57.80;;;;;;5049135;27;82337;-42
2022/08/03 07:15:13;;;;;;;;;;;21.40;57.70;;;;;;5048806;28;81364;-42
2022/08/03 07:17:38;;;;;;;;;;;21.50;57.60;;;;;;5048567;28;82105;-42
2022/08/03 07:20:05;;;;;;;;;;;21.40;57.60;;;;;;5049018;27;82356;-42
2022/08/03 07:22:31;;;;;;;;;;;21.50;57.80;;;;;;5047882;28;84209;-43
2022/08/03 07:24:57;;;;;;;;;;;21.50;57.90;;;;;;5048369;28;82389;-43
2022/08/03 07:27:23;;;;;;;;;;;21.50;57.80;;;;;;5048772;27;82305;-43
2022/08/03 07:29:48;;;;;;;;;;;21.50;57.90;;;;;;5048164;28;82216;-43
2022/08/03 07:32:14;;;;;;;;;;;21.50;57.80;;;;;;5051367;28;81984;-43
2022/08/03 07:34:39;;;;;;;;;;;21.50;57.80;;;;;;5048383;28;83025;-43
2022/08/03 07:37:05;;;;;;;;;;;21.50;57.80;;;;;;5048563;28;82070;-43
2022/08/03 07:39:30;;;;;;;;;;;21.50;57.80;;;;;;5048907;27;82207;-43
2022/08/03 07:41:56;;;;;;;;;;;21.50;57.90;;;;;;5048206;28;83189;-42
2022/08/03 07:44:21;;;;;;;;;;;21.50;57.80;;;;;;5048353;28;82150;-42
2022/08/03 07:46:47;;;;;;;;;;;21.50;57.80;;;;;;5047806;28;83022;-43
2022/08/03 07:49:12;;;;;;;;;;;21.50;57.90;;;;;;5048154;28;82983;-43
2022/08/03 07:51:38;;;;;;;;;;;21.50;57.70;;;;;;5050943;28;81994;-44
2022/08/03 07:54:04;;;;;;;;;;;21.50;57.70;;;;;;5048167;28;83166;-43
2022/08/03 07:56:29;;;;;;;;;;;21.50;57.70;;;;;;5048150;28;81658;-43
2022/08/03 07:58:55;;;;;;;;;;;21.50;57.80;;;;;;5048077;27;82240;-42
2022/08/03 08:01:21;;;;;;;;;;;21.60;57.70;;;;;;5047637;28;82902;-43
2022/08/03 08:03:47;;;;;;;;;;;21.60;57.60;;;;;;5048239;28;81291;-43
2022/08/03 08:06:13;;;;;;;;;;;21.60;57.70;;;;;;5048010;27;82218;-42
2022/08/03 08:08:39;;;;;;;;;;;21.60;57.60;;;;;;5047919;28;83019;-43
2022/08/03 08:11:05;;;;;;;;;;;21.60;57.60;;;;;;5047077;27;82895;-43
2022/08/03 08:13:30;;;;;;;;;;;21.60;57.40;;;;;;5050402;27;83343;-42
2022/08/03 08:15:56;;;;;;;;;;;21.70;57.30;;;;;;5047833;28;82014;-43
2022/08/03 08:18:22;;;;;;;;;;;21.60;57.80;;;;;;5047947;28;82285;-43
2022/08/03 08:20:48;;;;;;;;;;;21.70;57.50;;;;;;5047485;28;84283;-44
2022/08/03 08:23:14;;;;;;;;;;;21.70;57.50;;;;;;5047714;28;82050;-43
2022/08/03 08:25:40;;;;;;;;;;;21.70;57.40;;;;;;5047695;28;82302;-43
2022/08/03 08:28:05;;;;;;;;;;;21.70;57.40;;;;;;5047901;28;83617;-43
2022/08/03 08:30:31;;;;;;;;;;;21.70;57.40;;;;;;5047359;28;82006;-42
2022/08/03 08:32:57;;;;;;;;;;;21.70;57.50;;;;;;5047762;28;81960;-43
2022/08/03 08:35:23;;;;;;;;;;;21.70;57.40;;;;;;5049513;28;83349;-42
2022/08/03 08:37:48;;;;;;;;;;;21.70;57.50;;;;;;5047735;28;82379;-42
2022/08/03 08:40:14;;;;;;;;;;;21.70;57.40;;;;;;5047397;28;83117;-43
2022/08/03 08:42:41;;;;;;;;;;;21.70;57.40;;;;;;5047563;28;82052;-43
2022/08/03 08:45:08;;;;;;;;;;;21.70;57.40;;;;;;5047124;28;83011;-42
2022/08/03 08:47:36;;;;;;;;;;;21.80;57.50;;;;;;5046933;28;83820;-42
2022/08/03 08:50:02;;;;;;;;;;;21.80;57.40;;;;;;5047363;28;82031;-43
2022/08/03 08:52:28;;;;;;;;;;;21.80;57.40;;;;;;5047337;27;82806;-43
2022/08/03 08:54:58;;;;;;;;;;;21.80;57.30;;;;;;5047256;28;83288;-44
2022/08/03 08:57:27;;;;;;;;;;;21.80;57.20;;;;;;5049803;28;82089;-42
2022/08/03 08:59:55;;;;;;;;;;;21.90;57.30;;;;;;5045796;28;83443;-42
2022/08/03 09:02:24;;;;;;;;;;;21.90;57.40;;;;;;5047058;28;81928;-43
2022/08/03 09:04:50;;;;;;;;;;;21.90;57.30;;;;;;5047241;27;82346;-44
2022/08/03 09:07:16;;;;;;;;;;;21.90;57.30;;;;;;5047033;28;82154;-43
2022/08/03 09:09:42;;;;;;;;;;;21.90;57.20;;;;;;5046904;28;81761;-44
2022/08/03 09:12:07;;;;;;;;;;;22.00;57.20;;;;;;5046761;27;84127;-42
2022/08/03 09:14:33;;;;;;;;;;;22.00;57.50;;;;;;5046755;28;81940;-43
2022/08/03 09:17:03;;;;;;;;;;;22.00;57.40;;;;;;5047275;28;81321;-43
2022/08/03 09:19:30;;;;;;;;;;;22.00;57.20;;;;;;5048876;28;83314;-43
2022/08/03 09:22:11;;;;;;;;;;;22.00;57.10;;;;;;5046584;27;82078;-43
2022/08/03 09:24:37;;;;;;;;;;;22.00;57.20;;;;;;5045068;27;83702;-43
2022/08/03 09:27:10;;;;;;;;;;;22.10;57.20;;;;;;5046278;28;82993;-43
2022/08/03 09:29:35;;;;;;;;;;;22.10;57.20;;;;;;5046334;28;82098;-43
2022/08/03 09:32:02;;;;;;;;;;;22.10;57.00;;;;;;5046576;27;83807;-42
2022/08/03 09:34:28;;;;;;;;;;;22.10;57.10;;;;;;5046132;28;84356;-43
2022/08/03 09:36:54;;;;;;;;;;;22.10;57.10;;;;;;5046788;28;81982;-44
2022/08/03 09:39:21;;;;;;;;;;;22.10;57.10;;;;;;5046008;27;84120;-43
2022/08/03 09:41:48;;;;;;;;;;;22.20;57.10;;;;;;5049231;28;82048;-43
2022/08/03 09:44:14;;;;;;;;;;;22.20;57.10;;;;;;5046351;28;81844;-43
2022/08/03 09:46:49;;;;;;;;;;;22.20;57.10;;;;;;5046064;28;82938;-43
2022/08/03 09:49:15;;;;;;;;;;;22.20;57.10;;;;;;5045288;28;83028;-43
2022/08/03 09:51:41;;;;;;;;;;;22.20;57.10;;;;;;5046043;27;83359;-42
2022/08/03 09:54:06;;;;;;;;;;;22.30;57.10;;;;;;5045911;28;83379;-43
2022/08/03 09:56:46;;;;;;;;;;;22.30;57.10;;;;;;5046192;28;82028;-43
2022/08/03 09:59:13;;;;;;;;;;;22.30;57.10;;;;;;5046441;27;82196;-43
2022/08/03 10:01:40;;;;;;;;;;;22.30;57.10;;;;;;5048387;28;82906;-43
2022/08/03 10:04:10;;;;;;;;;;;22.30;57.10;;;;;;5045944;27;83987;-43
2022/08/03 10:06:36;;;;;;;;;;;22.40;57.20;;;;;;5046106;28;81562;-43
2022/08/03 10:09:06;;;;;;;;;;;22.40;57.20;;;;;;5046116;28;82042;-43
2022/08/03 10:11:33;;;;;;;;;;;22.40;57.20;;;;;;5045908;28;82473;-43
2022/08/03 10:13:58;;;;;;;;;;;22.40;56.90;;;;;;5045240;28;83017;-43
2022/08/03 10:16:24;;;;;;;;;;;22.40;57.00;;;;;;5046158;28;81933;-44
2022/08/03 10:18:49;;;;;;;;;;;22.50;57.30;;;;;;5046082;28;82463;-43
2022/08/03 10:21:15;;;;;;;;;;;22.50;56.90;;;;;;5045827;28;82763;-43
2022/08/03 10:23:41;;;;;;;;;;;22.50;56.90;;;;;;5048715;28;82056;-44
2022/08/03 10:26:07;;;;;;;;;;;22.50;56.80;;;;;;5046231;28;82986;-44
2022/08/03 10:28:39;;;;;;;;;;;22.50;57.10;;;;;;5045854;28;81860;-43
2022/08/03 10:31:06;;;;;;;;;;;22.60;56.90;;;;;;5046336;28;83840;-43
2022/08/03 10:33:36;;;;;;;;;;;22.60;56.90;;;;;;5045393;27;84550;-43
2022/08/03 10:36:02;;;;;;;;;;;22.60;56.90;;;;;;5049311;28;82027;-43
2022/08/03 10:38:36;;;;;;;;;;;22.70;57.00;;;;;;5049015;28;82816;-43
2022/08/03 10:41:02;;;;;;;;;;;22.70;56.80;;;;;;5049251;28;82928;-43
2022/08/03 10:43:31;;;;;;;;;;;22.70;56.80;;;;;;5049271;28;82012;-43
2022/08/03 10:45:57;;;;;;;;;;;22.70;56.80;;;;;;5051767;27;82295;-43
2022/08/03 10:48:23;;;;;;;;;;;22.70;56.90;;;;;;5049184;28;82915;-43
2022/08/03 10:50:49;;;;;;;;;;;22.70;56.70;;;;;;5049377;27;82622;-43
2022/08/03 10:53:15;;;;;;;;;;;22.80;56.90;;;;;;5045671;28;87693;-43
2022/08/03 10:58:37;;;;;;;;;;;22.80;56.80;;;;;;5045142;28;86924;-42
2022/08/03 11:01:07;;;;;;;;;;;22.90;56.80;;;;;;5044653;28;90288;-43
2022/08/03 11:03:33;;;;;;;;;;;22.90;56.70;;;;;;5044650;28;88012;-43
2022/08/03 11:06:19;;;;;;;;;;;22.90;56.60;;;;;;5045731;27;88254;-43
2022/08/03 11:08:48;;;;;;;;;;;22.90;56.70;;;;;;5048240;28;89245;-43
2022/08/03 11:11:17;;;;;;;;;;;22.90;56.90;;;;;;5045242;28;87045;-45
2022/08/03 11:13:58;;;;;;;;;;;22.90;56.90;;;;;;5045235;28;88006;-43
2022/08/03 11:16:26;;;;;;;;;;;22.90;56.80;;;;;;5045603;28;86984;-43
2022/08/03 11:18:59;;;;;;;;;;;23.00;56.90;;;;;;5045348;27;87731;-43
2022/08/03 11:21:43;;;;;;;;;;;23.00;56.90;;;;;;5045543;28;87273;-44
2022/08/03 11:24:08;;;;;;;;;;;23.00;56.80;;;;;;5044913;27;87116;-44
2022/08/03 11:26:34;;;;;;;;;;;23.00;56.70;;;;;;5045451;28;88101;-43
2022/08/03 11:29:18;;;;;;;;;;;23.10;56.60;;;;;;5044372;28;88398;-43
2022/08/03 11:31:45;;;;;;;;;;;23.10;56.60;;;;;;5048196;27;87272;-43
2022/08/03 11:34:14;;;;;;;;;;;23.10;56.50;;;;;;5044775;28;87810;-44
2022/08/03 11:36:58;;;;;;;;;;;23.20;56.60;;;;;;5044997;28;87476;-44
2022/08/03 11:39:36;;;;;;;;;;;23.20;56.40;;;;;;5045085;27;86965;-43
2022/08/03 11:42:22;;;;;;;;;;;23.30;56.40;;;;;;5044848;28;87903;-43
2022/08/03 11:44:55;;;;;;;;;;;23.30;56.40;;;;;;5044689;28;86932;-43
2022/08/03 11:47:22;;;;;;;;;;;23.30;56.50;;;;;;5044700;27;87423;-45
2022/08/03 11:49:49;;;;;;;;;;;23.30;56.50;;;;;;5044480;28;89474;-43
2022/08/03 11:52:15;;;;;;;;;;;23.30;56.20;;;;;;5044827;28;87118;-43
2022/08/03 11:54:41;;;;;;;;;;;23.30;56.20;;;;;;5047114;27;88125;-43
2022/08/03 11:57:06;;;;;;;;;;;23.40;56.30;;;;;;5044788;28;87064;-44
2022/08/03 11:59:33;;;;;;;;;;;23.40;56.30;;;;;;5044678;28;87043;-43
2022/08/03 12:02:12;;;;;;;;;;;23.40;55.90;;;;;;5044042;28;88105;-44
2022/08/03 12:05:00;;;;;;;;;;;23.40;56.20;;;;;;5044442;27;87087;-43
2022/08/03 12:07:29;;;;;;;;;;;23.50;56.20;;;;;;5044478;27;88220;-45
2022/08/03 12:10:06;;;;;;;;;;;23.50;56.10;;;;;;5044108;28;87949;-43
2022/08/03 12:12:32;;;;;;;;;;;23.60;56.00;;;;;;5045125;28;86445;-43
2022/08/03 12:14:57;;;;;;;;;;;23.60;56.00;;;;;;5047116;28;87044;-43
2022/08/03 12:17:31;;;;;;;;;;;23.60;55.90;;;;;;5044803;28;86968;-43
2022/08/03 12:19:56;;;;;;;;;;;23.60;55.70;;;;;;5044043;28;87947;-43
2022/08/03 12:22:36;;;;;;;;;;;23.60;55.80;;;;;;5043941;28;88013;-43
2022/08/03 12:25:02;;;;;;;;;;;23.70;55.80;;;;;;5044218;28;87064;-43
2022/08/03 12:27:30;;;;;;;;;;;23.70;55.70;;;;;;5044304;28;87566;-43
2022/08/03 12:29:57;;;;;;;;;;;23.80;55.70;;;;;;5043832;28;87945;-43
2022/08/03 12:32:23;;;;;;;;;;;23.70;55.60;;;;;;5044403;28;87154;-43
2022/08/03 12:34:48;;;;;;;;;;;23.80;55.50;;;;;;5044250;28;87411;-43
2022/08/03 12:37:24;;;;;;;;;;;23.80;55.50;;;;;;5047274;28;87016;-44
2022/08/03 12:39:58;;;;;;;;;;;23.80;55.40;;;;;;5044336;27;87000;-43
2022/08/03 12:42:29;;;;;;;;;;;23.90;55.40;;;;;;5043502;28;89272;-44
2022/08/03 12:44:55;;;;;;;;;;;23.90;55.40;;;;;;5043237;28;88044;-43
2022/08/03 12:47:20;;;;;;;;;;;23.90;55.50;;;;;;5043845;28;88420;-43
2022/08/03 12:49:50;;;;;;;;;;;23.90;55.10;;;;;;5043033;28;88216;-43
2022/08/03 12:52:16;;;;;;;;;;;24.00;55.40;;;;;;5043307;28;87597;-44
2022/08/03 12:54:52;;;;;;;;;;;24.00;55.30;;;;;;5043570;27;89055;-44
2022/08/03 12:57:18;;;;;;;;;;;24.00;55.30;;;;;;5043776;27;87983;-44
2022/08/03 12:59:51;;;;;;;;;;;24.00;55.30;;;;;;5046227;28;87127;-43
2022/08/03 13:02:18;;;;;;;;;;;24.00;55.30;;;;;;5043741;28;88617;-44
2022/08/03 13:04:44;;;;;;;;;;;24.10;55.20;;;;;;5043336;28;87448;-43
2022/08/03 13:07:10;;;;;;;;;;;24.10;55.10;;;;;;5043465;27;88140;-44
2022/08/03 13:09:42;;;;;;;;;;;24.20;55.10;;;;;;5042603;28;88933;-45
2022/08/03 13:12:11;;;;;;;;;;;24.20;55.40;;;;;;5043295;28;87083;-43
2022/08/03 13:14:36;;;;;;;;;;;24.20;55.40;;;;;;5043325;27;88766;-43
2022/08/03 13:17:02;;;;;;;;;;;24.20;55.40;;;;;;5043009;28;87924;-43
2022/08/03 13:19:28;;;;;;;;;;;24.20;55.20;;;;;;5043366;28;87147;-43
2022/08/03 13:21:53;;;;;;;;;;;24.30;55.30;;;;;;5046184;28;87510;-43
2022/08/03 13:24:19;;;;;;;;;;;24.30;55.30;;;;;;5043257;28;87087;-43
2022/08/03 13:26:44;;;;;;;;;;;24.30;55.40;;;;;;5043815;27;88670;-43
2022/08/03 13:29:10;;;;;;;;;;;24.30;55.40;;;;;;5042777;28;89301;-45
2022/08/03 13:31:36;;;;;;;;;;;24.30;55.40;;;;;;5043080;28;87183;-44
2022/08/03 13:34:01;;;;;;;;;;;24.30;55.40;;;;;;5042874;28;87929;-43
2022/08/03 13:36:27;;;;;;;;;;;24.30;55.40;;;;;;5043088;28;88199;-44
2022/08/03 13:38:52;;;;;;;;;;;24.30;55.40;;;;;;5042877;28;87128;-44
2022/08/03 13:41:17;;;;;;;;;;;24.30;55.40;;;;;;5043277;28;87372;-44
2022/08/03 13:43:43;;;;;;;;;;;24.30;55.30;;;;;;5045611;28;88021;-43
2022/08/03 13:46:08;;;;;;;;;;;24.30;55.30;;;;;;5043216;28;87520;-44
2022/08/03 13:48:34;;;;;;;;;;;24.30;55.30;;;;;;5042811;28;87143;-43
2022/08/03 13:50:59;;;;;;;;;;;24.30;55.30;;;;;;5043740;28;86335;-43
2022/08/03 13:53:25;;;;;;;;;;;24.30;55.20;;;;;;5042985;28;86706;-43
2022/08/03 13:55:50;;;;;;;;;;;24.30;55.20;;;;;;5042623;28;87181;-43
2022/08/03 13:58:16;;;;;;;;;;;24.40;55.20;;;;;;5042293;28;88085;-43
2022/08/03 14:00:41;;;;;;;;;;;24.30;55.20;;;;;;5042487;28;88406;-43
2022/08/03 14:03:07;;;;;;;;;;;24.40;55.30;;;;;;5042499;28;87149;-44
2022/08/03 14:05:34;;;;;;;;;;;24.30;55.20;;;;;;5045607;28;87087;-44
2022/08/03 14:08:00;;;;;;;;;;;24.40;55.20;;;;;;5042400;28;88061;-44
2022/08/03 14:10:26;;;;;;;;;;;24.50;55.20;;;;;;5042351;28;87125;-43
2022/08/03 14:12:51;;;;;;;;;;;24.50;55.30;;;;;;5042518;28;88140;-43
2022/08/03 14:15:17;;;;;;;;;;;24.50;55.30;;;;;;5042939;28;87062;-43
2022/08/03 14:17:42;;;;;;;;;;;24.50;55.30;;;;;;5042811;28;87158;-44
2022/08/03 14:20:08;;;;;;;;;;;24.50;55.30;;;;;;5042576;28;87506;-43
2022/08/03 14:22:34;;;;;;;;;;;24.50;55.40;;;;;;5041709;28;88827;-44
2022/08/03 14:24:59;;;;;;;;;;;24.50;55.20;;;;;;5045433;28;87080;-43